sensor_id;sensor_type;location;lat;lon;timestamp;P1;durP1;ratioP1;P2;durP2;ratioP2
48363;SDS011;34170;54.364;18.582;2023-12-14T00:00:18;12.63;;;6.15;;
48363;SDS011;34170;54.364;18.582;2023-12-14T00:03:06;17.23;;;7.25;;
48363;SDS011;34170;54.364;18.582;2023-12-14T00:05:34;13.18;;;6.28;;
48363;SDS011;34170;54.364;18.582;2023-12-14T00:08:02;13.63;;;6.07;;
48363;SDS011;34170;54.364;18.582;2023-12-14T00:10:30;12.38;;;5.50;;
48363;SDS011;34170;54.364;18.582;2023-12-14T00:12:57;12.43;;;5.53;;
48363;SDS011;34170;54.364;18.582;2023-12-14T00:15:26;14.55;;;5.70;;
48363;SDS011;34170;54.364;18.582;2023-12-14T00:17:53;11.45;;;5.47;;
48363;SDS011;34170;54.364;18.582;2023-12-14T00:20:21;13.38;;;5.85;;
48363;SDS011;34170;54.364;18.582;2023-12-14T00:22:48;11.48;;;5.45;;
48363;SDS011;34170;54.364;18.582;2023-12-14T00:25:16;8.93;;;4.60;;
48363;SDS011;34170;54.364;18.582;2023-12-14T00:27:44;11.82;;;5.55;;
48363;SDS011;34170;54.364;18.582;2023-12-14T00:30:11;11.73;;;5.93;;
48363;SDS011;34170;54.364;18.582;2023-12-14T00:32:39;11.45;;;5.70;;
48363;SDS011;34170;54.364;18.582;2023-12-14T00:35:07;11.27;;;5.13;;
48363;SDS011;34170;54.364;18.582;2023-12-14T00:37:35;10.50;;;5.47;;
48363;SDS011;34170;54.364;18.582;2023-12-14T00:40:02;12.35;;;5.80;;
48363;SDS011;34170;54.364;18.582;2023-12-14T00:42:31;8.45;;;4.70;;
48363;SDS011;34170;54.364;18.582;2023-12-14T00:44:59;12.43;;;5.38;;
48363;SDS011;34170;54.364;18.582;2023-12-14T00:47:29;14.98;;;5.28;;
48363;SDS011;34170;54.364;18.582;2023-12-14T00:49:57;9.55;;;5.03;;
48363;SDS011;34170;54.364;18.582;2023-12-14T00:52:24;11.35;;;5.28;;
48363;SDS011;34170;54.364;18.582;2023-12-14T00:54:52;11.52;;;5.25;;
48363;SDS011;34170;54.364;18.582;2023-12-14T00:57:19;11.88;;;5.85;;
48363;SDS011;34170;54.364;18.582;2023-12-14T00:59:47;12.35;;;5.72;;
48363;SDS011;34170;54.364;18.582;2023-12-14T01:02:15;10.88;;;5.22;;
48363;SDS011;34170;54.364;18.582;2023-12-14T01:04:43;11.82;;;6.03;;
48363;SDS011;34170;54.364;18.582;2023-12-14T01:07:10;11.18;;;4.68;;
48363;SDS011;34170;54.364;18.582;2023-12-14T01:09:38;8.02;;;4.65;;
48363;SDS011;34170;54.364;18.582;2023-12-14T01:12:05;6.93;;;4.00;;
48363;SDS011;34170;54.364;18.582;2023-12-14T01:14:33;10.70;;;4.82;;
48363;SDS011;34170;54.364;18.582;2023-12-14T01:17:01;8.63;;;3.75;;
48363;SDS011;34170;54.364;18.582;2023-12-14T01:19:29;10.90;;;4.85;;
48363;SDS011;34170;54.364;18.582;2023-12-14T01:21:56;7.53;;;3.40;;
48363;SDS011;34170;54.364;18.582;2023-12-14T01:24:24;8.88;;;4.13;;
48363;SDS011;34170;54.364;18.582;2023-12-14T01:26:51;9.40;;;4.35;;
48363;SDS011;34170;54.364;18.582;2023-12-14T01:29:19;7.55;;;3.80;;
48363;SDS011;34170;54.364;18.582;2023-12-14T01:31:47;8.23;;;4.45;;
48363;SDS011;34170;54.364;18.582;2023-12-14T01:34:14;7.20;;;3.90;;
48363;SDS011;34170;54.364;18.582;2023-12-14T01:36:42;6.43;;;3.63;;
48363;SDS011;34170;54.364;18.582;2023-12-14T01:39:10;8.98;;;4.38;;
48363;SDS011;34170;54.364;18.582;2023-12-14T01:41:37;7.13;;;3.45;;
48363;SDS011;34170;54.364;18.582;2023-12-14T01:44:05;8.15;;;3.95;;
48363;SDS011;34170;54.364;18.582;2023-12-14T01:46:32;8.10;;;4.00;;
48363;SDS011;34170;54.364;18.582;2023-12-14T01:49:00;5.38;;;2.90;;
48363;SDS011;34170;54.364;18.582;2023-12-14T01:51:28;8.82;;;4.93;;
48363;SDS011;34170;54.364;18.582;2023-12-14T01:53:55;7.47;;;3.05;;
48363;SDS011;34170;54.364;18.582;2023-12-14T01:56:23;6.97;;;3.22;;
48363;SDS011;34170;54.364;18.582;2023-12-14T01:58:50;8.32;;;3.50;;
48363;SDS011;34170;54.364;18.582;2023-12-14T02:01:20;5.55;;;2.90;;
48363;SDS011;34170;54.364;18.582;2023-12-14T02:03:53;7.75;;;3.08;;
48363;SDS011;34170;54.364;18.582;2023-12-14T02:06:21;7.20;;;3.13;;
48363;SDS011;34170;54.364;18.582;2023-12-14T02:08:49;10.65;;;4.30;;
48363;SDS011;34170;54.364;18.582;2023-12-14T02:11:16;7.57;;;3.67;;
48363;SDS011;34170;54.364;18.582;2023-12-14T02:13:44;10.85;;;4.47;;
48363;SDS011;34170;54.364;18.582;2023-12-14T02:16:11;10.95;;;4.25;;
48363;SDS011;34170;54.364;18.582;2023-12-14T02:18:39;8.02;;;3.80;;
48363;SDS011;34170;54.364;18.582;2023-12-14T02:21:07;5.45;;;3.10;;
48363;SDS011;34170;54.364;18.582;2023-12-14T02:23:34;8.65;;;3.60;;
48363;SDS011;34170;54.364;18.582;2023-12-14T02:26:02;6.78;;;3.67;;
48363;SDS011;34170;54.364;18.582;2023-12-14T02:28:30;6.10;;;3.30;;
48363;SDS011;34170;54.364;18.582;2023-12-14T02:30:57;6.43;;;3.17;;
48363;SDS011;34170;54.364;18.582;2023-12-14T02:33:25;7.53;;;3.42;;
48363;SDS011;34170;54.364;18.582;2023-12-14T02:35:52;4.38;;;2.35;;
48363;SDS011;34170;54.364;18.582;2023-12-14T02:38:20;5.05;;;2.95;;
48363;SDS011;34170;54.364;18.582;2023-12-14T02:40:47;5.50;;;2.60;;
48363;SDS011;34170;54.364;18.582;2023-12-14T02:43:18;4.72;;;2.75;;
48363;SDS011;34170;54.364;18.582;2023-12-14T02:45:46;5.28;;;3.08;;
48363;SDS011;34170;54.364;18.582;2023-12-14T02:48:13;4.45;;;2.65;;
48363;SDS011;34170;54.364;18.582;2023-12-14T02:50:41;6.22;;;3.00;;
48363;SDS011;34170;54.364;18.582;2023-12-14T02:53:08;5.63;;;2.63;;
48363;SDS011;34170;54.364;18.582;2023-12-14T02:55:36;6.03;;;2.30;;
48363;SDS011;34170;54.364;18.582;2023-12-14T02:58:04;5.93;;;2.63;;
48363;SDS011;34170;54.364;18.582;2023-12-14T03:00:31;8.95;;;2.90;;
48363;SDS011;34170;54.364;18.582;2023-12-14T03:02:59;6.45;;;2.78;;
48363;SDS011;34170;54.364;18.582;2023-12-14T03:05:27;5.18;;;2.50;;
48363;SDS011;34170;54.364;18.582;2023-12-14T03:07:54;6.13;;;2.70;;
48363;SDS011;34170;54.364;18.582;2023-12-14T03:10:22;5.57;;;2.42;;
48363;SDS011;34170;54.364;18.582;2023-12-14T03:12:49;6.32;;;2.08;;
48363;SDS011;34170;54.364;18.582;2023-12-14T03:15:17;4.22;;;2.08;;
48363;SDS011;34170;54.364;18.582;2023-12-14T03:17:45;4.22;;;2.15;;
48363;SDS011;34170;54.364;18.582;2023-12-14T03:20:13;5.22;;;2.25;;
48363;SDS011;34170;54.364;18.582;2023-12-14T03:22:41;5.28;;;2.72;;
48363;SDS011;34170;54.364;18.582;2023-12-14T03:25:09;7.03;;;2.65;;
48363;SDS011;34170;54.364;18.582;2023-12-14T03:27:39;5.13;;;3.05;;
48363;SDS011;34170;54.364;18.582;2023-12-14T03:30:07;8.95;;;3.20;;
48363;SDS011;34170;54.364;18.582;2023-12-14T03:32:37;6.80;;;3.08;;
48363;SDS011;34170;54.364;18.582;2023-12-14T03:35:05;9.82;;;3.97;;
48363;SDS011;34170;54.364;18.582;2023-12-14T03:37:35;9.18;;;3.67;;
48363;SDS011;34170;54.364;18.582;2023-12-14T03:40:03;8.32;;;3.83;;
48363;SDS011;34170;54.364;18.582;2023-12-14T03:42:31;8.80;;;3.05;;
48363;SDS011;34170;54.364;18.582;2023-12-14T03:44:59;7.97;;;2.75;;
48363;SDS011;34170;54.364;18.582;2023-12-14T03:47:27;4.90;;;2.40;;
48363;SDS011;34170;54.364;18.582;2023-12-14T03:49:54;6.85;;;2.85;;
48363;SDS011;34170;54.364;18.582;2023-12-14T03:52:22;7.13;;;2.80;;
48363;SDS011;34170;54.364;18.582;2023-12-14T03:54:49;5.53;;;2.42;;
48363;SDS011;34170;54.364;18.582;2023-12-14T03:57:17;5.07;;;2.90;;
48363;SDS011;34170;54.364;18.582;2023-12-14T03:59:44;7.53;;;3.00;;
48363;SDS011;34170;54.364;18.582;2023-12-14T04:02:12;5.47;;;2.53;;
48363;SDS011;34170;54.364;18.582;2023-12-14T04:04:40;7.25;;;3.00;;
48363;SDS011;34170;54.364;18.582;2023-12-14T04:07:07;7.35;;;3.03;;
48363;SDS011;34170;54.364;18.582;2023-12-14T04:09:36;7.40;;;2.88;;
48363;SDS011;34170;54.364;18.582;2023-12-14T04:12:04;6.70;;;2.80;;
48363;SDS011;34170;54.364;18.582;2023-12-14T04:14:31;5.22;;;2.47;;
48363;SDS011;34170;54.364;18.582;2023-12-14T04:16:59;7.05;;;2.08;;
48363;SDS011;34170;54.364;18.582;2023-12-14T04:19:27;5.53;;;2.45;;
48363;SDS011;34170;54.364;18.582;2023-12-14T04:21:54;4.57;;;2.20;;
48363;SDS011;34170;54.364;18.582;2023-12-14T04:24:22;5.22;;;2.33;;
48363;SDS011;34170;54.364;18.582;2023-12-14T04:26:49;5.60;;;2.08;;
48363;SDS011;34170;54.364;18.582;2023-12-14T04:29:17;5.53;;;2.20;;
48363;SDS011;34170;54.364;18.582;2023-12-14T04:31:44;5.30;;;1.85;;
48363;SDS011;34170;54.364;18.582;2023-12-14T04:34:12;4.95;;;1.70;;
48363;SDS011;34170;54.364;18.582;2023-12-14T04:36:43;2.42;;;1.27;;
48363;SDS011;34170;54.364;18.582;2023-12-14T04:39:12;3.40;;;1.60;;
48363;SDS011;34170;54.364;18.582;2023-12-14T04:41:40;3.78;;;1.77;;
48363;SDS011;34170;54.364;18.582;2023-12-14T04:44:09;2.75;;;1.45;;
48363;SDS011;34170;54.364;18.582;2023-12-14T04:46:38;3.70;;;1.55;;
48363;SDS011;34170;54.364;18.582;2023-12-14T04:49:05;2.70;;;0.80;;
48363;SDS011;34170;54.364;18.582;2023-12-14T04:51:33;3.42;;;1.40;;
48363;SDS011;34170;54.364;18.582;2023-12-14T04:54:00;3.58;;;1.77;;
48363;SDS011;34170;54.364;18.582;2023-12-14T04:56:28;2.53;;;1.30;;
48363;SDS011;34170;54.364;18.582;2023-12-14T04:58:55;1.95;;;0.95;;
48363;SDS011;34170;54.364;18.582;2023-12-14T05:01:23;2.33;;;0.88;;
48363;SDS011;34170;54.364;18.582;2023-12-14T05:03:52;1.38;;;0.68;;
48363;SDS011;34170;54.364;18.582;2023-12-14T05:06:20;1.58;;;0.70;;
48363;SDS011;34170;54.364;18.582;2023-12-14T05:08:48;3.40;;;0.93;;
48363;SDS011;34170;54.364;18.582;2023-12-14T05:11:15;1.45;;;0.80;;
48363;SDS011;34170;54.364;18.582;2023-12-14T05:13:43;1.85;;;0.50;;
48363;SDS011;34170;54.364;18.582;2023-12-14T05:16:14;1.98;;;0.73;;
48363;SDS011;34170;54.364;18.582;2023-12-14T05:18:41;3.25;;;0.90;;
48363;SDS011;34170;54.364;18.582;2023-12-14T05:21:18;2.33;;;0.85;;
48363;SDS011;34170;54.364;18.582;2023-12-14T05:23:45;2.03;;;0.70;;
48363;SDS011;34170;54.364;18.582;2023-12-14T05:26:14;1.60;;;0.68;;
48363;SDS011;34170;54.364;18.582;2023-12-14T05:28:42;3.00;;;0.88;;
48363;SDS011;34170;54.364;18.582;2023-12-14T05:31:09;1.80;;;0.70;;
48363;SDS011;34170;54.364;18.582;2023-12-14T05:33:37;1.70;;;0.52;;
48363;SDS011;34170;54.364;18.582;2023-12-14T05:36:06;1.92;;;0.50;;
48363;SDS011;34170;54.364;18.582;2023-12-14T05:38:38;1.90;;;0.50;;
48363;SDS011;34170;54.364;18.582;2023-12-14T05:41:06;2.58;;;0.75;;
48363;SDS011;34170;54.364;18.582;2023-12-14T05:43:34;2.75;;;1.10;;
48363;SDS011;34170;54.364;18.582;2023-12-14T05:46:02;1.15;;;0.70;;
48363;SDS011;34170;54.364;18.582;2023-12-14T05:48:30;1.10;;;0.55;;
48363;SDS011;34170;54.364;18.582;2023-12-14T05:50:59;2.00;;;0.80;;
48363;SDS011;34170;54.364;18.582;2023-12-14T05:53:27;1.85;;;0.80;;
48363;SDS011;34170;54.364;18.582;2023-12-14T05:55:55;1.33;;;0.55;;
48363;SDS011;34170;54.364;18.582;2023-12-14T05:58:22;1.90;;;1.20;;
48363;SDS011;34170;54.364;18.582;2023-12-14T06:00:50;4.03;;;0.93;;
48363;SDS011;34170;54.364;18.582;2023-12-14T06:03:18;2.97;;;0.90;;
48363;SDS011;34170;54.364;18.582;2023-12-14T06:05:46;1.55;;;0.70;;
48363;SDS011;34170;54.364;18.582;2023-12-14T06:08:13;1.60;;;0.50;;
48363;SDS011;34170;54.364;18.582;2023-12-14T06:10:41;1.60;;;0.65;;
48363;SDS011;34170;54.364;18.582;2023-12-14T06:13:09;1.52;;;0.50;;
48363;SDS011;34170;54.364;18.582;2023-12-14T06:15:36;2.20;;;0.45;;
48363;SDS011;34170;54.364;18.582;2023-12-14T06:18:04;1.73;;;0.70;;
48363;SDS011;34170;54.364;18.582;2023-12-14T06:20:32;2.15;;;1.00;;
48363;SDS011;34170;54.364;18.582;2023-12-14T06:23:00;2.13;;;0.98;;
48363;SDS011;34170;54.364;18.582;2023-12-14T06:25:28;3.67;;;0.93;;
48363;SDS011;34170;54.364;18.582;2023-12-14T06:27:55;4.13;;;1.20;;
48363;SDS011;34170;54.364;18.582;2023-12-14T06:30:23;4.15;;;1.30;;
48363;SDS011;34170;54.364;18.582;2023-12-14T06:32:51;2.80;;;1.13;;
48363;SDS011;34170;54.364;18.582;2023-12-14T06:35:18;2.63;;;1.15;;
48363;SDS011;34170;54.364;18.582;2023-12-14T06:37:46;2.28;;;1.23;;
48363;SDS011;34170;54.364;18.582;2023-12-14T06:40:14;4.07;;;1.00;;
48363;SDS011;34170;54.364;18.582;2023-12-14T06:42:41;2.95;;;1.30;;
48363;SDS011;34170;54.364;18.582;2023-12-14T06:45:09;4.22;;;1.50;;
48363;SDS011;34170;54.364;18.582;2023-12-14T06:47:37;4.75;;;1.52;;
48363;SDS011;34170;54.364;18.582;2023-12-14T06:50:05;3.92;;;1.50;;
48363;SDS011;34170;54.364;18.582;2023-12-14T06:52:33;7.75;;;1.58;;
48363;SDS011;34170;54.364;18.582;2023-12-14T06:55:01;3.47;;;1.80;;
48363;SDS011;34170;54.364;18.582;2023-12-14T06:57:29;4.03;;;1.95;;
48363;SDS011;34170;54.364;18.582;2023-12-14T06:59:57;3.42;;;1.75;;
48363;SDS011;34170;54.364;18.582;2023-12-14T07:02:24;3.58;;;1.77;;
48363;SDS011;34170;54.364;18.582;2023-12-14T07:04:52;9.43;;;2.17;;
48363;SDS011;34170;54.364;18.582;2023-12-14T07:07:20;5.57;;;2.17;;
48363;SDS011;34170;54.364;18.582;2023-12-14T07:09:47;5.38;;;2.70;;
48363;SDS011;34170;54.364;18.582;2023-12-14T07:12:15;6.57;;;2.17;;
48363;SDS011;34170;54.364;18.582;2023-12-14T07:14:43;6.65;;;2.90;;
48363;SDS011;34170;54.364;18.582;2023-12-14T07:17:10;6.28;;;2.63;;
48363;SDS011;34170;54.364;18.582;2023-12-14T07:19:38;6.18;;;2.38;;
48363;SDS011;34170;54.364;18.582;2023-12-14T07:22:06;6.43;;;2.20;;
48363;SDS011;34170;54.364;18.582;2023-12-14T07:24:33;3.78;;;1.95;;
48363;SDS011;34170;54.364;18.582;2023-12-14T07:27:14;7.05;;;2.50;;
48363;SDS011;34170;54.364;18.582;2023-12-14T07:29:42;5.82;;;2.53;;
48363;SDS011;34170;54.364;18.582;2023-12-14T07:32:10;5.78;;;2.28;;
48363;SDS011;34170;54.364;18.582;2023-12-14T07:34:38;5.55;;;2.33;;
48363;SDS011;34170;54.364;18.582;2023-12-14T07:37:05;4.53;;;1.90;;
48363;SDS011;34170;54.364;18.582;2023-12-14T07:39:33;4.25;;;1.98;;
48363;SDS011;34170;54.364;18.582;2023-12-14T07:42:01;4.13;;;1.77;;
48363;SDS011;34170;54.364;18.582;2023-12-14T07:44:28;5.55;;;1.88;;
48363;SDS011;34170;54.364;18.582;2023-12-14T07:47:00;6.40;;;2.13;;
48363;SDS011;34170;54.364;18.582;2023-12-14T07:49:28;4.63;;;1.63;;
48363;SDS011;34170;54.364;18.582;2023-12-14T07:51:55;4.20;;;1.67;;
48363;SDS011;34170;54.364;18.582;2023-12-14T07:54:23;4.82;;;2.03;;
48363;SDS011;34170;54.364;18.582;2023-12-14T07:56:54;3.20;;;2.00;;
48363;SDS011;34170;54.364;18.582;2023-12-14T07:59:21;3.10;;;1.70;;
48363;SDS011;34170;54.364;18.582;2023-12-14T08:01:50;8.15;;;1.40;;
48363;SDS011;34170;54.364;18.582;2023-12-14T08:04:17;4.82;;;1.30;;
48363;SDS011;34170;54.364;18.582;2023-12-14T08:06:45;2.65;;;1.25;;
48363;SDS011;34170;54.364;18.582;2023-12-14T08:09:13;5.07;;;1.70;;
48363;SDS011;34170;54.364;18.582;2023-12-14T08:11:40;2.97;;;1.00;;
48363;SDS011;34170;54.364;18.582;2023-12-14T08:14:08;2.92;;;1.40;;
48363;SDS011;34170;54.364;18.582;2023-12-14T08:16:35;3.75;;;1.30;;
48363;SDS011;34170;54.364;18.582;2023-12-14T08:19:03;2.80;;;1.50;;
48363;SDS011;34170;54.364;18.582;2023-12-14T08:21:31;3.90;;;1.85;;
48363;SDS011;34170;54.364;18.582;2023-12-14T08:23:58;2.53;;;1.73;;
48363;SDS011;34170;54.364;18.582;2023-12-14T08:26:26;4.25;;;1.63;;
48363;SDS011;34170;54.364;18.582;2023-12-14T08:28:54;4.80;;;1.80;;
48363;SDS011;34170;54.364;18.582;2023-12-14T08:31:21;4.45;;;2.08;;
48363;SDS011;34170;54.364;18.582;2023-12-14T08:33:50;3.55;;;1.77;;
48363;SDS011;34170;54.364;18.582;2023-12-14T08:36:19;5.97;;;1.60;;
48363;SDS011;34170;54.364;18.582;2023-12-14T08:38:47;3.50;;;1.60;;
48363;SDS011;34170;54.364;18.582;2023-12-14T08:41:14;3.05;;;1.52;;
48363;SDS011;34170;54.364;18.582;2023-12-14T08:43:43;4.93;;;1.80;;
48363;SDS011;34170;54.364;18.582;2023-12-14T08:46:11;9.27;;;1.73;;
48363;SDS011;34170;54.364;18.582;2023-12-14T08:48:38;5.95;;;1.65;;
48363;SDS011;34170;54.364;18.582;2023-12-14T08:51:06;4.55;;;1.30;;
48363;SDS011;34170;54.364;18.582;2023-12-14T08:53:34;3.58;;;1.20;;
48363;SDS011;34170;54.364;18.582;2023-12-14T08:56:01;4.85;;;1.60;;
48363;SDS011;34170;54.364;18.582;2023-12-14T08:58:30;2.53;;;1.73;;
48363;SDS011;34170;54.364;18.582;2023-12-14T09:00:57;6.88;;;1.25;;
48363;SDS011;34170;54.364;18.582;2023-12-14T09:03:25;2.22;;;1.15;;
48363;SDS011;34170;54.364;18.582;2023-12-14T09:05:54;2.55;;;1.20;;
48363;SDS011;34170;54.364;18.582;2023-12-14T09:08:22;5.38;;;1.30;;
48363;SDS011;34170;54.364;18.582;2023-12-14T09:10:49;3.85;;;1.17;;
48363;SDS011;34170;54.364;18.582;2023-12-14T09:13:17;2.80;;;1.27;;
48363;SDS011;34170;54.364;18.582;2023-12-14T09:15:44;3.83;;;1.58;;
48363;SDS011;34170;54.364;18.582;2023-12-14T09:18:12;3.78;;;1.38;;
48363;SDS011;34170;54.364;18.582;2023-12-14T09:20:40;2.67;;;0.90;;
48363;SDS011;34170;54.364;18.582;2023-12-14T09:23:09;2.78;;;1.17;;
48363;SDS011;34170;54.364;18.582;2023-12-14T09:25:37;1.90;;;0.75;;
48363;SDS011;34170;54.364;18.582;2023-12-14T09:28:05;2.50;;;0.60;;
48363;SDS011;34170;54.364;18.582;2023-12-14T09:30:32;21.48;;;3.30;;
48363;SDS011;34170;54.364;18.582;2023-12-14T09:33:00;1.20;;;0.47;;
48363;SDS011;34170;54.364;18.582;2023-12-14T09:35:28;7.82;;;0.90;;
48363;SDS011;34170;54.364;18.582;2023-12-14T09:37:55;2.15;;;0.90;;
48363;SDS011;34170;54.364;18.582;2023-12-14T09:40:23;1.17;;;0.57;;
48363;SDS011;34170;54.364;18.582;2023-12-14T09:42:51;1.70;;;0.60;;
48363;SDS011;34170;54.364;18.582;2023-12-14T09:45:19;1.67;;;0.60;;
48363;SDS011;34170;54.364;18.582;2023-12-14T09:47:50;4.15;;;0.77;;
48363;SDS011;34170;54.364;18.582;2023-12-14T09:50:19;1.88;;;0.77;;
48363;SDS011;34170;54.364;18.582;2023-12-14T09:52:48;3.08;;;0.70;;
48363;SDS011;34170;54.364;18.582;2023-12-14T09:55:16;3.58;;;1.70;;
48363;SDS011;34170;54.364;18.582;2023-12-14T09:57:45;3.67;;;1.33;;
48363;SDS011;34170;54.364;18.582;2023-12-14T10:00:12;3.38;;;1.40;;
48363;SDS011;34170;54.364;18.582;2023-12-14T10:03:18;3.85;;;1.50;;
48363;SDS011;34170;54.364;18.582;2023-12-14T10:05:46;3.28;;;1.63;;
48363;SDS011;34170;54.364;18.582;2023-12-14T10:08:16;5.13;;;2.33;;
48363;SDS011;34170;54.364;18.582;2023-12-14T10:10:46;4.68;;;2.40;;
48363;SDS011;34170;54.364;18.582;2023-12-14T10:15:44;7.03;;;2.85;;
48363;SDS011;34170;54.364;18.582;2023-12-14T10:18:23;5.13;;;2.13;;
48363;SDS011;34170;54.364;18.582;2023-12-14T10:20:52;3.40;;;1.95;;
48363;SDS011;34170;54.364;18.582;2023-12-14T10:23:20;4.78;;;2.33;;
48363;SDS011;34170;54.364;18.582;2023-12-14T10:25:48;5.65;;;2.20;;
48363;SDS011;34170;54.364;18.582;2023-12-14T10:28:16;3.53;;;1.73;;
48363;SDS011;34170;54.364;18.582;2023-12-14T10:30:43;6.20;;;1.40;;
48363;SDS011;34170;54.364;18.582;2023-12-14T10:33:11;4.50;;;2.13;;
48363;SDS011;34170;54.364;18.582;2023-12-14T10:35:41;6.97;;;3.53;;
48363;SDS011;34170;54.364;18.582;2023-12-14T10:38:10;8.75;;;3.33;;
48363;SDS011;34170;54.364;18.582;2023-12-14T10:40:39;7.95;;;2.22;;
48363;SDS011;34170;54.364;18.582;2023-12-14T10:43:11;6.68;;;2.67;;
48363;SDS011;34170;54.364;18.582;2023-12-14T10:45:43;4.25;;;1.80;;
48363;SDS011;34170;54.364;18.582;2023-12-14T10:48:15;3.22;;;1.55;;
48363;SDS011;34170;54.364;18.582;2023-12-14T10:50:48;6.22;;;2.63;;
48363;SDS011;34170;54.364;18.582;2023-12-14T10:53:18;6.28;;;2.55;;
48363;SDS011;34170;54.364;18.582;2023-12-14T10:55:46;5.80;;;2.17;;
48363;SDS011;34170;54.364;18.582;2023-12-14T10:58:19;5.68;;;2.00;;
48363;SDS011;34170;54.364;18.582;2023-12-14T11:01:05;8.02;;;2.95;;
48363;SDS011;34170;54.364;18.582;2023-12-14T11:03:33;4.47;;;2.05;;
48363;SDS011;34170;54.364;18.582;2023-12-14T11:06:02;4.25;;;1.58;;
48363;SDS011;34170;54.364;18.582;2023-12-14T11:08:41;3.80;;;2.03;;
48363;SDS011;34170;54.364;18.582;2023-12-14T11:11:11;6.43;;;2.15;;
48363;SDS011;34170;54.364;18.582;2023-12-14T11:13:40;5.55;;;2.28;;
48363;SDS011;34170;54.364;18.582;2023-12-14T11:16:08;2.83;;;1.70;;
48363;SDS011;34170;54.364;18.582;2023-12-14T11:18:36;3.72;;;1.50;;
48363;SDS011;34170;54.364;18.582;2023-12-14T11:21:04;2.80;;;1.50;;
48363;SDS011;34170;54.364;18.582;2023-12-14T11:23:35;8.70;;;3.50;;
48363;SDS011;34170;54.364;18.582;2023-12-14T11:26:10;2.97;;;1.60;;
48363;SDS011;34170;54.364;18.582;2023-12-14T11:28:39;3.10;;;1.75;;
48363;SDS011;34170;54.364;18.582;2023-12-14T11:31:10;3.88;;;1.80;;
48363;SDS011;34170;54.364;18.582;2023-12-14T11:33:40;4.55;;;2.38;;
48363;SDS011;34170;54.364;18.582;2023-12-14T11:36:11;6.40;;;2.15;;
48363;SDS011;34170;54.364;18.582;2023-12-14T11:38:39;7.30;;;2.60;;
48363;SDS011;34170;54.364;18.582;2023-12-14T11:41:07;7.80;;;2.95;;
48363;SDS011;34170;54.364;18.582;2023-12-14T11:43:53;5.18;;;2.10;;
48363;SDS011;34170;54.364;18.582;2023-12-14T11:46:20;5.53;;;2.10;;
48363;SDS011;34170;54.364;18.582;2023-12-14T11:48:48;5.65;;;2.13;;
48363;SDS011;34170;54.364;18.582;2023-12-14T11:51:16;4.80;;;2.13;;
48363;SDS011;34170;54.364;18.582;2023-12-14T11:53:47;4.60;;;2.17;;
48363;SDS011;34170;54.364;18.582;2023-12-14T11:56:18;6.55;;;2.47;;
48363;SDS011;34170;54.364;18.582;2023-12-14T11:58:47;3.97;;;2.40;;
48363;SDS011;34170;54.364;18.582;2023-12-14T12:01:18;7.00;;;2.97;;
48363;SDS011;34170;54.364;18.582;2023-12-14T12:03:48;7.15;;;2.92;;
48363;SDS011;34170;54.364;18.582;2023-12-14T12:06:25;5.18;;;2.70;;
48363;SDS011;34170;54.364;18.582;2023-12-14T12:08:58;8.40;;;2.97;;
48363;SDS011;34170;54.364;18.582;2023-12-14T12:11:26;5.97;;;2.40;;
48363;SDS011;34170;54.364;18.582;2023-12-14T12:13:56;5.60;;;2.70;;
48363;SDS011;34170;54.364;18.582;2023-12-14T12:16:24;4.78;;;2.22;;
48363;SDS011;34170;54.364;18.582;2023-12-14T12:18:53;4.93;;;2.65;;
48363;SDS011;34170;54.364;18.582;2023-12-14T12:21:20;5.10;;;2.42;;
48363;SDS011;34170;54.364;18.582;2023-12-14T12:23:48;13.48;;;2.53;;
48363;SDS011;34170;54.364;18.582;2023-12-14T12:26:15;9.82;;;2.92;;
48363;SDS011;34170;54.364;18.582;2023-12-14T12:28:43;7.13;;;2.42;;
48363;SDS011;34170;54.364;18.582;2023-12-14T12:31:11;7.35;;;2.80;;
48363;SDS011;34170;54.364;18.582;2023-12-14T12:33:39;4.53;;;2.42;;
48363;SDS011;34170;54.364;18.582;2023-12-14T12:36:07;5.18;;;2.65;;
48363;SDS011;34170;54.364;18.582;2023-12-14T12:38:35;4.07;;;2.47;;
48363;SDS011;34170;54.364;18.582;2023-12-14T12:41:07;5.97;;;2.72;;
48363;SDS011;34170;54.364;18.582;2023-12-14T12:43:35;6.60;;;2.28;;
48363;SDS011;34170;54.364;18.582;2023-12-14T12:46:03;6.47;;;2.45;;
48363;SDS011;34170;54.364;18.582;2023-12-14T12:48:31;4.07;;;2.25;;
48363;SDS011;34170;54.364;18.582;2023-12-14T12:50:59;4.68;;;2.85;;
48363;SDS011;34170;54.364;18.582;2023-12-14T12:53:26;5.88;;;2.30;;
48363;SDS011;34170;54.364;18.582;2023-12-14T12:55:54;5.00;;;2.40;;
48363;SDS011;34170;54.364;18.582;2023-12-14T12:58:21;6.43;;;2.95;;
48363;SDS011;34170;54.364;18.582;2023-12-14T13:00:49;6.20;;;2.95;;
48363;SDS011;34170;54.364;18.582;2023-12-14T13:03:16;2.28;;;1.20;;
48363;SDS011;34170;54.364;18.582;2023-12-14T13:05:44;5.25;;;1.73;;
48363;SDS011;34170;54.364;18.582;2023-12-14T13:08:12;6.15;;;2.40;;
48363;SDS011;34170;54.364;18.582;2023-12-14T13:10:40;3.55;;;2.30;;
48363;SDS011;34170;54.364;18.582;2023-12-14T13:13:08;4.45;;;2.13;;
48363;SDS011;34170;54.364;18.582;2023-12-14T13:15:37;4.97;;;2.22;;
48363;SDS011;34170;54.364;18.582;2023-12-14T13:18:06;3.95;;;2.05;;
48363;SDS011;34170;54.364;18.582;2023-12-14T13:20:34;4.75;;;2.50;;
48363;SDS011;34170;54.364;18.582;2023-12-14T13:23:02;5.15;;;2.53;;
48363;SDS011;34170;54.364;18.582;2023-12-14T13:25:29;4.72;;;2.35;;
48363;SDS011;34170;54.364;18.582;2023-12-14T13:27:57;4.18;;;2.60;;
48363;SDS011;34170;54.364;18.582;2023-12-14T13:30:24;4.38;;;1.92;;
48363;SDS011;34170;54.364;18.582;2023-12-14T13:32:52;4.82;;;2.50;;
48363;SDS011;34170;54.364;18.582;2023-12-14T13:35:21;5.65;;;2.17;;
48363;SDS011;34170;54.364;18.582;2023-12-14T13:37:50;3.50;;;2.25;;
48363;SDS011;34170;54.364;18.582;2023-12-14T13:40:17;4.20;;;2.47;;
48363;SDS011;34170;54.364;18.582;2023-12-14T13:42:46;3.58;;;2.30;;
48363;SDS011;34170;54.364;18.582;2023-12-14T13:45:29;4.22;;;2.45;;
48363;SDS011;34170;54.364;18.582;2023-12-14T13:47:58;3.85;;;2.30;;
48363;SDS011;34170;54.364;18.582;2023-12-14T13:50:26;4.65;;;2.45;;
48363;SDS011;34170;54.364;18.582;2023-12-14T13:52:56;4.82;;;2.58;;
48363;SDS011;34170;54.364;18.582;2023-12-14T13:55:24;4.05;;;2.53;;
48363;SDS011;34170;54.364;18.582;2023-12-14T13:57:51;3.80;;;2.28;;
48363;SDS011;34170;54.364;18.582;2023-12-14T14:00:19;4.53;;;2.70;;
48363;SDS011;34170;54.364;18.582;2023-12-14T14:02:47;4.70;;;2.60;;
48363;SDS011;34170;54.364;18.582;2023-12-14T14:05:15;4.13;;;2.83;;
48363;SDS011;34170;54.364;18.582;2023-12-14T14:07:43;6.13;;;3.03;;
48363;SDS011;34170;54.364;18.582;2023-12-14T14:10:11;5.60;;;3.25;;
48363;SDS011;34170;54.364;18.582;2023-12-14T14:12:39;5.00;;;3.10;;
48363;SDS011;34170;54.364;18.582;2023-12-14T14:15:06;7.38;;;3.70;;
48363;SDS011;34170;54.364;18.582;2023-12-14T14:17:34;8.20;;;4.18;;
48363;SDS011;34170;54.364;18.582;2023-12-14T14:20:02;7.15;;;3.45;;
48363;SDS011;34170;54.364;18.582;2023-12-14T14:22:30;5.55;;;3.33;;
48363;SDS011;34170;54.364;18.582;2023-12-14T14:24:58;6.18;;;3.00;;
48363;SDS011;34170;54.364;18.582;2023-12-14T14:27:26;5.18;;;3.10;;
48363;SDS011;34170;54.364;18.582;2023-12-14T14:29:53;5.40;;;3.35;;
48363;SDS011;34170;54.364;18.582;2023-12-14T14:32:23;8.07;;;3.58;;
48363;SDS011;34170;54.364;18.582;2023-12-14T14:34:51;9.77;;;5.20;;
48363;SDS011;34170;54.364;18.582;2023-12-14T14:37:20;12.15;;;6.20;;
48363;SDS011;34170;54.364;18.582;2023-12-14T14:39:47;10.55;;;6.00;;
48363;SDS011;34170;54.364;18.582;2023-12-14T14:42:15;11.95;;;5.70;;